Time;durP1;ratioP1;P1;durP2;ratioP2;P2;SDS_P1;SDS_P2;PMS_P1;PMS_P2;Temp;Humidity;BMP_temperature;BMP_pressure;BME280_temperature;BME280_humidity;BME280_pressure;Samples;Min_cycle;Max_cycle;Signal;HPM_P1;HPM_P2
2022/01/01 00:01:22;;;;;;;;;;;;;;;5.09;63.79;100052.06;6224099;23;1944;-95
2022/01/01 00:03:50;;;;;;;;;;;;;;;5.09;63.67;100075.22;6274997;22;1206;-94
2022/01/01 00:06:17;;;;;;;;;;;;;;;5.08;63.75;100074.41;6225728;23;1221;-95
2022/01/01 00:08:44;;;;;;;;;;;;;;;5.10;63.59;100085.72;6276010;22;1194;-93
2022/01/01 00:11:12;;;;;;;;;;;;;;;5.08;63.85;100101.09;6229839;23;1295;-95
2022/01/01 00:13:39;;;;;;;;;;;;;;;5.12;63.63;100090.88;6254659;23;1369;-95
2022/01/01 00:16:09;;;;;;;;;;;;;;;5.11;63.61;100094.56;6276773;22;1319;-95
2022/01/01 00:18:35;;;;;;;;;;;;;;;5.06;63.78;100104.97;6250600;23;1464;-94
2022/01/01 00:21:02;;;;;;;;;;;;;;;5.07;63.67;100109.31;6252363;23;1896;-95
2022/01/01 00:23:28;;;;;;;;;;;;;;;5.09;63.67;100107.25;6278518;22;1279;-93
2022/01/01 00:25:55;;;;;;;;;;;;;;;5.06;63.83;100113.84;6278639;22;1292;-94
2022/01/01 00:28:21;;;;;;;;;;;;;;;5.06;63.77;100115.66;6278053;22;1214;-95
2022/01/01 00:30:48;;;;;;;;;;;;;;;5.06;63.81;100123.66;6254837;23;1426;-93
2022/01/01 00:33:15;;;;;;;;;;;;;;;5.06;63.79;100121.84;6255529;23;1308;-95
2022/01/01 00:35:41;;;;;;;;;;;;;;;5.03;63.96;100118.72;6276893;22;1321;-94
2022/01/01 00:38:08;;;;;;;;;;;;;;;5.02;64.03;100123.25;6275517;22;1230;-94
2022/01/01 00:40:35;;;;;;;;;;;;;;;5.03;63.92;100130.25;6226890;23;1327;-96
2022/01/01 00:43:01;;;;;;;;;;;;;;;5.04;63.76;100131.06;6254614;23;1901;-95
2022/01/01 00:45:28;;;;;;;;;;;;;;;5.01;63.92;100148.28;6249367;23;1258;-95
2022/01/01 00:47:54;;;;;;;;;;;;;;;5.03;63.95;100148.94;6225269;23;1215;-96
2022/01/01 00:50:21;;;;;;;;;;;;;;;4.98;63.89;100154.84;6250213;23;1412;-95
2022/01/01 00:52:50;;;;;;;;;;;;;;;5.00;63.91;100158.16;6275413;22;1205;-95
2022/01/01 00:55:16;;;;;;;;;;;;;;;5.03;63.81;100161.44;6276532;22;1362;-95
2022/01/01 00:57:43;;;;;;;;;;;;;;;5.00;64.00;100170.69;6276853;22;1150;-95
2022/01/01 01:00:09;;;;;;;;;;;;;;;4.99;63.91;100185.84;6252414;23;1311;-95
2022/01/01 01:02:36;;;;;;;;;;;;;;;4.99;63.94;100185.84;6253205;23;1900;-95
2022/01/01 01:05:03;;;;;;;;;;;;;;;4.94;64.07;100188.28;6227171;23;1378;-95
2022/01/01 01:07:29;;;;;;;;;;;;;;;4.95;63.96;100199.78;6251789;23;1254;-95
2022/01/01 01:09:56;;;;;;;;;;;;;;;4.94;64.02;100200.78;6275676;22;1283;-94
2022/01/01 01:12:26;;;;;;;;;;;;;;;4.91;64.09;100206.50;6275471;22;1174;-95
2022/01/01 01:14:55;;;;;;;;;;;;;;;4.97;63.95;100214.59;6253197;23;1328;-96
2022/01/01 01:17:22;;;;;;;;;;;;;;;4.95;63.90;100219.28;6277254;22;1261;-94
2022/01/01 01:19:48;;;;;;;;;;;;;;;4.94;63.97;100230.13;6227318;23;1270;-96
2022/01/01 01:22:15;;;;;;;;;;;;;;;4.95;63.86;100235.28;6229192;23;1934;-95
2022/01/01 01:24:42;;;;;;;;;;;;;;;4.95;63.93;100232.63;6278552;22;1198;-95
2022/01/01 01:27:09;;;;;;;;;;;;;;;4.94;64.03;100233.66;6278849;22;1143;-96
2022/01/01 01:29:41;;;;;;;;;;;;;;;4.95;63.73;100237.97;6279826;22;1289;-95
2022/01/01 01:32:09;;;;;;;;;;;;;;;4.92;63.99;100245.53;6254198;23;1347;-94
2022/01/01 01:34:36;;;;;;;;;;;;;;;4.89;64.01;100244.06;6278591;22;1400;-93
2022/01/01 01:37:02;;;;;;;;;;;;;;;4.91;63.90;100266.06;6230549;23;1179;-94
2022/01/01 01:39:29;;;;;;;;;;;;;;;4.93;64.03;100268.53;6279473;22;1184;-95
2022/01/01 01:41:55;;;;;;;;;;;;;;;4.89;63.98;100264.59;6255038;23;1945;-94
2022/01/01 01:44:22;;;;;;;;;;;;;;;4.90;64.15;100263.56;6250975;23;1291;-95
2022/01/01 01:49:32;;;;;;;;;;;;;;;4.89;64.05;100278.75;6255287;23;1047;-95
2022/01/01 01:51:59;;;;;;;;;;;;;;;4.90;64.05;100275.06;6279243;22;1367;-94
2022/01/01 01:54:25;;;;;;;;;;;;;;;4.91;63.90;100279.41;6251396;23;1305;-96
2022/01/01 01:56:52;;;;;;;;;;;;;;;4.91;63.88;100290.06;6254026;23;1426;-94
2022/01/01 01:59:18;;;;;;;;;;;;;;;4.89;63.80;100299.28;6251584;23;1222;-93
2022/01/01 02:01:45;;;;;;;;;;;;;;;4.94;63.95;100312.88;6254223;23;1911;-94
2022/01/01 02:04:11;;;;;;;;;;;;;;;4.97;63.74;100308.00;6280301;22;1450;-94
2022/01/01 02:06:38;;;;;;;;;;;;;;;4.92;63.90;100307.72;6280683;22;1325;-94
2022/01/01 02:09:04;;;;;;;;;;;;;;;4.91;63.84;100303.41;6275185;22;1163;-95
2022/01/01 02:11:31;;;;;;;;;;;;;;;4.91;63.81;100308.75;6275128;22;1328;-94
2022/01/01 02:14:13;;;;;;;;;;;;;;;4.91;63.95;100321.25;6277791;22;1081;-94
2022/01/01 02:16:56;;;;;;;;;;;;;;;4.91;63.93;100315.91;6223977;23;1245;-95
2022/01/01 02:19:22;;;;;;;;;;;;;;;4.90;63.80;100328.44;6221279;23;1275;-95
2022/01/01 02:21:49;;;;;;;;;;;;;;;4.91;63.87;100326.59;6225002;23;1901;-95
2022/01/01 02:24:16;;;;;;;;;;;;;;;4.93;63.79;100332.56;6224414;23;1204;-94
2022/01/01 02:26:42;;;;;;;;;;;;;;;4.93;63.74;100333.41;6224741;23;1386;-95
2022/01/01 02:29:10;;;;;;;;;;;;;;;4.92;63.70;100346.94;6224552;23;1187;-94
2022/01/01 02:31:36;;;;;;;;;;;;;;;4.90;63.84;100349.78;6224304;23;1290;-93
2022/01/01 02:34:03;;;;;;;;;;;;;;;4.91;63.81;100351.47;6222892;23;1267;-95
2022/01/01 02:36:29;;;;;;;;;;;;;;;4.95;63.69;100354.56;6221646;23;1218;-94
2022/01/01 02:38:56;;;;;;;;;;;;;;;4.93;63.61;100354.75;6222825;23;1328;-95
2022/01/01 02:41:23;;;;;;;;;;;;;;;4.93;63.68;100351.25;6221628;23;1334;-96
2022/01/01 02:43:49;;;;;;;;;;;;;;;4.89;63.86;100356.16;6220701;23;1897;-94
2022/01/01 02:46:16;;;;;;;;;;;;;;;4.92;63.66;100355.78;6222369;23;1295;-95
2022/01/01 02:48:45;;;;;;;;;;;;;;;4.95;63.69;100359.91;6224912;23;1400;-94
2022/01/01 02:51:12;;;;;;;;;;;;;;;4.97;63.42;100368.53;6225200;23;1380;-95
2022/01/01 02:53:38;;;;;;;;;;;;;;;4.95;63.54;100368.75;6226152;23;1151;-95
2022/01/01 02:56:05;;;;;;;;;;;;;;;4.96;63.53;100385.56;6226211;23;1424;-95
2022/01/01 02:58:31;;;;;;;;;;;;;;;4.96;63.61;100382.91;6227890;23;1189;-95
2022/01/01 03:00:58;;;;;;;;;;;;;;;4.96;63.27;100385.56;6218505;23;1281;-95
2022/01/01 03:03:25;;;;;;;;;;;;;;;4.94;63.69;100388.44;6218382;23;1900;-95
2022/01/01 03:05:51;;;;;;;;;;;;;;;4.99;63.53;100393.22;6216960;23;1311;-95
2022/01/01 03:08:18;;;;;;;;;;;;;;;4.95;63.44;100403.44;6218131;23;1184;-95
2022/01/01 03:10:47;;;;;;;;;;;;;;;4.96;63.48;100401.59;6217786;23;1364;-96
2022/01/01 03:13:13;;;;;;;;;;;;;;;5.03;63.32;100407.00;6218632;23;1195;-93
2022/01/01 03:15:40;;;;;;;;;;;;;;;4.97;63.39;100406.75;6237023;23;1176;-95
2022/01/01 03:18:07;;;;;;;;;;;;;;;4.96;63.63;100405.09;6276258;22;1198;-94
2022/01/01 03:20:33;;;;;;;;;;;;;;;4.98;63.45;100411.06;6249583;23;1296;-93
2022/01/01 03:23:00;;;;;;;;;;;;;;;4.96;63.47;100414.94;6278597;22;1896;-94
2022/01/01 03:25:26;;;;;;;;;;;;;;;5.00;63.26;100421.56;6275381;22;1274;-95
2022/01/01 03:27:53;;;;;;;;;;;;;;;4.99;63.37;100425.25;6223832;23;1156;-95
2022/01/01 03:30:20;;;;;;;;;;;;;;;4.98;63.45;100435.09;6249489;23;1405;-93
2022/01/01 03:32:46;;;;;;;;;;;;;;;4.99;63.40;100438.59;6226727;23;1276;-93
2022/01/01 03:35:13;;;;;;;;;;;;;;;4.97;63.42;100441.47;6248418;23;1367;-94
2022/01/01 03:37:40;;;;;;;;;;;;;;;4.98;63.50;100444.94;6277125;22;1313;-94
2022/01/01 03:40:06;;;;;;;;;;;;;;;5.01;63.19;100444.56;6247855;23;1167;-94
2022/01/01 03:42:34;;;;;;;;;;;;;;;5.00;63.38;100453.59;6252425;23;1940;-95
2022/01/01 03:45:01;;;;;;;;;;;;;;;5.03;63.19;100455.06;6278302;22;1281;-95
2022/01/01 03:47:28;;;;;;;;;;;;;;;4.98;63.29;100459.13;6252869;23;1389;-94
2022/01/01 03:49:54;;;;;;;;;;;;;;;5.00;63.41;100464.28;6252337;23;1323;-95
2022/01/01 03:52:22;;;;;;;;;;;;;;;5.04;63.24;100470.91;6254427;23;1241;-95
2022/01/01 03:54:49;;;;;;;;;;;;;;;5.06;63.05;100481.38;6250040;23;1163;-94
2022/01/01 03:57:15;;;;;;;;;;;;;;;5.04;63.12;100483.41;6249992;23;1479;-94
2022/01/01 03:59:42;;;;;;;;;;;;;;;5.03;63.14;100482.59;6278987;22;1246;-95
2022/01/01 04:02:09;;;;;;;;;;;;;;;4.97;63.40;100500.19;6250780;23;1900;-94
2022/01/01 04:04:35;;;;;;;;;;;;;;;4.97;63.40;100489.50;6250338;23;1373;-94
2022/01/01 04:07:04;;;;;;;;;;;;;;;5.03;63.20;100498.63;6251823;23;1301;-93
2022/01/01 04:09:32;;;;;;;;;;;;;;;5.00;63.35;100505.16;6228879;23;1327;-95
2022/01/01 04:11:59;;;;;;;;;;;;;;;5.00;63.21;100501.66;6280632;22;1289;-95
2022/01/01 04:14:25;;;;;;;;;;;;;;;5.01;nan;100503.31;6277672;22;1296;-95
2022/01/01 04:16:54;;;;;;;;;;;;;;;5.04;63.16;100510.13;6228606;23;950;-93
2022/01/01 04:19:26;;;;;;;;;;;;;;;5.03;63.21;100513.78;6253330;23;1179;-95
2022/01/01 04:21:52;;;;;;;;;;;;;;;5.03;63.29;100527.97;6278946;22;1274;-96
2022/01/01 04:24:19;;;;;;;;;;;;;;;4.99;63.32;100530.16;6228797;23;1941;-95
2022/01/01 04:26:45;;;;;;;;;;;;;;;5.05;nan;100539.28;6252393;23;1261;-94
2022/01/01 04:29:12;;;;;;;;;;;;;;;5.05;63.20;100541.94;6278178;22;734;-94
2022/01/01 04:31:39;;;;;;;;;;;;;;;5.05;63.10;100554.47;6253373;23;1368;-96
2022/01/01 04:34:05;;;;;;;;;;;;;;;5.03;63.33;100551.16;6256063;23;1275;-95
2022/01/01 04:36:32;;;;;;;;;;;;;;;5.04;63.27;100555.50;6282033;22;1245;-95
2022/01/01 04:38:58;;;;;;;;;;;;;;;5.04;63.14;100555.50;6254181;23;1256;-94
2022/01/01 04:41:25;;;;;;;;;;;;;;;5.04;63.23;100564.34;6254937;23;1532;-94
2022/01/01 04:43:51;;;;;;;;;;;;;;;5.04;63.30;100571.50;6254818;23;1900;-95
2022/01/01 04:46:18;;;;;;;;;;;;;;;5.04;63.17;100574.19;6230840;23;1299;-95
2022/01/01 04:48:44;;;;;;;;;;;;;;;5.08;62.99;100583.47;6281358;22;1230;-96
2022/01/01 04:51:11;;;;;;;;;;;;;;;5.09;62.99;100587.78;6255785;23;1399;-95
2022/01/01 04:53:39;;;;;;;;;;;;;;;5.07;62.97;100588.00;6280214;22;1559;-94
2022/01/01 04:56:08;;;;;;;;;;;;;;;5.11;63.04;100591.13;6274866;22;1276;-94
2022/01/01 04:58:34;;;;;;;;;;;;;;;5.08;63.07;100596.81;6251540;23;1370;-95
2022/01/01 05:01:01;;;;;;;;;;;;;;;5.08;62.98;100597.66;6227142;23;1281;-94
2022/01/01 05:03:27;;;;;;;;;;;;;;;5.05;63.14;100592.66;6255441;23;1870;-95
2022/01/01 05:05:54;;;;;;;;;;;;;;;5.04;63.11;100600.88;6281672;22;1346;-94
2022/01/01 05:08:20;;;;;;;;;;;;;;;5.07;63.05;100603.19;6256936;23;1191;-94
2022/01/01 05:10:47;;;;;;;;;;;;;;;5.08;63.02;100605.66;6278460;22;1216;-95
2022/01/01 05:13:14;;;;;;;;;;;;;;;5.12;62.88;100619.50;6231125;23;1254;-95
2022/01/01 05:15:41;;;;;;;;;;;;;;;5.10;62.90;100613.50;6257737;23;1249;-96
2022/01/01 05:18:11;;;;;;;;;;;;;;;5.06;63.06;100623.72;6281879;22;1204;-94
2022/01/01 05:20:37;;;;;;;;;;;;;;;5.08;63.06;100631.53;6255214;23;1259;-95
2022/01/01 05:23:07;;;;;;;;;;;;;;;5.08;62.98;100634.19;6256129;23;1901;-95
2022/01/01 05:25:34;;;;;;;;;;;;;;;5.11;62.96;100637.31;6251828;23;1148;-94
2022/01/01 05:28:00;;;;;;;;;;;;;;;5.11;62.84;100639.16;6227856;23;1304;-94
2022/01/01 05:30:27;;;;;;;;;;;;;;;5.05;63.19;100638.06;6253959;23;1340;-94
2022/01/01 05:32:53;;;;;;;;;;;;;;;5.13;63.01;100642.50;6275295;22;1167;-93
2022/01/01 05:35:20;;;;;;;;;;;;;;;5.09;62.93;100639.38;6250722;23;1305;-94
2022/01/01 05:37:47;;;;;;;;;;;;;;;5.07;62.94;100640.56;6252893;23;1235;-95
2022/01/01 05:40:13;;;;;;;;;;;;;;;5.12;63.01;100639.00;6227360;23;1301;-95
2022/01/01 05:42:41;;;;;;;;;;;;;;;5.07;63.13;100646.72;6277092;22;1900;-96
2022/01/01 05:45:07;;;;;;;;;;;;;;;5.07;63.13;100646.72;6251850;23;1111;-93
2022/01/01 05:47:35;;;;;;;;;;;;;;;5.15;62.91;100649.31;6252388;23;1108;-94
2022/01/01 05:50:01;;;;;;;;;;;;;;;5.12;62.92;100664.88;6252201;23;1206;-94
2022/01/01 05:52:28;;;;;;;;;;;;;;;5.15;62.82;100662.66;6276272;22;1296;-94
2022/01/01 05:54:54;;;;;;;;;;;;;;;5.17;62.51;100668.63;6278342;22;1227;-95
2022/01/01 05:57:22;;;;;;;;;;;;;;;5.10;62.90;100673.06;6255694;23;1459;-93
2022/01/01 05:59:48;;;;;;;;;;;;;;;5.13;62.82;100679.88;6228035;23;1553;-95
2022/01/01 06:02:15;;;;;;;;;;;;;;;5.15;62.78;100685.88;6225351;23;1310;-94
2022/01/01 06:04:41;;;;;;;;;;;;;;;5.13;62.69;100683.38;6227746;23;1939;-94
2022/01/01 06:07:10;;;;;;;;;;;;;;;5.13;62.98;100685.22;6279611;22;1297;-96
2022/01/01 06:09:37;;;;;;;;;;;;;;;5.13;62.87;100686.03;6278935;22;1218;-94
2022/01/01 06:12:03;;;;;;;;;;;;;;;5.11;63.01;100701.41;6279988;22;1173;-94
2022/01/01 06:14:30;;;;;;;;;;;;;;;5.11;62.97;100700.59;6279560;22;1174;-95
2022/01/01 06:16:56;;;;;;;;;;;;;;;5.13;62.83;100696.72;6226223;23;1453;-95
2022/01/01 06:19:25;;;;;;;;;;;;;;;5.13;62.84;100701.25;6278144;22;1288;-96
2022/01/01 06:21:54;;;;;;;;;;;;;;;5.13;62.75;100696.72;6252674;23;1194;-94
2022/01/01 06:24:21;;;;;;;;;;;;;;;5.14;62.72;100697.56;6278744;22;1942;-95
2022/01/01 06:26:47;;;;;;;;;;;;;;;5.12;62.71;100697.75;6276469;22;1281;-94
2022/01/01 06:29:14;;;;;;;;;;;;;;;5.16;62.66;100704.38;6279497;22;1305;-94
2022/01/01 06:31:40;;;;;;;;;;;;;;;5.15;62.83;100709.91;6228227;23;1297;-94
2022/01/01 06:34:08;;;;;;;;;;;;;;;5.11;62.82;100714.75;6251351;23;1325;-96
2022/01/01 06:36:34;;;;;;;;;;;;;;;5.14;62.96;100721.56;6278361;22;1265;-95
2022/01/01 06:39:01;;;;;;;;;;;;;;;5.16;62.69;100722.25;6277502;22;1162;-94
2022/01/01 06:41:29;;;;;;;;;;;;;;;5.15;62.70;100724.09;6230719;23;1225;-95
2022/01/01 06:43:55;;;;;;;;;;;;;;;5.15;62.93;100731.28;6252514;23;1934;-94
2022/01/01 06:46:22;;;;;;;;;;;;;;;5.13;62.97;100742.13;6278514;22;1257;-93
2022/01/01 06:48:48;;;;;;;;;;;;;;;5.17;62.69;100746.06;6281623;22;1269;-93
2022/01/01 06:51:15;;;;;;;;;;;;;;;5.20;62.56;100745.72;6281266;22;1312;-95
2022/01/01 06:53:42;;;;;;;;;;;;;;;5.18;62.77;100744.25;6257779;23;1354;-95
2022/01/01 06:56:09;;;;;;;;;;;;;;;5.20;62.61;100745.72;6231485;23;1449;-95
2022/01/01 06:58:35;;;;;;;;;;;;;;;5.18;62.68;100745.09;6258300;23;1357;-96
2022/01/01 07:01:02;;;;;;;;;;;;;;;5.15;62.88;100742.78;6282438;22;1352;-95
2022/01/01 07:03:29;;;;;;;;;;;;;;;5.16;62.84;100741.75;6283932;22;1938;-96
2022/01/01 07:05:56;;;;;;;;;;;;;;;5.19;62.72;100748.56;6282567;22;1210;-94
2022/01/01 07:08:22;;;;;;;;;;;;;;;5.20;62.60;100764.41;6256615;23;1277;-95
2022/01/01 07:10:49;;;;;;;;;;;;;;;5.22;62.57;100764.25;6280059;22;1160;-95
2022/01/01 07:13:15;;;;;;;;;;;;;;;5.19;62.49;100769.94;6280915;22;1304;-94
2022/01/01 07:15:42;;;;;;;;;;;;;;;5.16;62.71;100775.63;6283578;22;1260;-94
2022/01/01 07:18:08;;;;;;;;;;;;;;;5.13;62.76;100787.50;6257778;23;1322;-95
2022/01/01 07:20:35;;;;;;;;;;;;;;;5.17;62.54;100791.47;6284039;22;1291;-95
2022/01/01 07:23:02;;;;;;;;;;;;;;;5.18;62.60;100790.47;6234262;23;1917;-95
2022/01/01 07:25:29;;;;;;;;;;;;;;;5.18;62.72;100800.34;6284695;22;1372;-94
2022/01/01 07:27:56;;;;;;;;;;;;;;;5.15;62.88;100785.50;6252700;23;1416;-95
2022/01/01 07:30:22;;;;;;;;;;;;;;;5.16;62.75;100787.16;6257794;23;1213;-95
2022/01/01 07:32:49;;;;;;;;;;;;;;;5.18;62.58;100786.97;6232555;23;1343;-94
2022/01/01 07:35:16;;;;;;;;;;;;;;;5.16;62.63;100792.50;6258285;23;1183;-96
2022/01/01 07:37:42;;;;;;;;;;;;;;;5.21;62.56;100794.63;6259774;23;1183;-95
2022/01/01 07:40:09;;;;;;;;;;;;;;;5.21;62.50;100800.81;6235540;23;1297;-95
2022/01/01 07:42:35;;;;;;;;;;;;;;;5.23;62.45;100798.78;6257210;23;1249;-96
2022/01/01 07:45:02;;;;;;;;;;;;;;;5.23;62.32;100803.28;6248369;23;1909;-95
2022/01/01 07:47:29;;;;;;;;;;;;;;;5.18;62.67;100801.16;6273599;22;1135;-96
2022/01/01 07:49:55;;;;;;;;;;;;;;;5.21;62.43;100806.13;6274371;22;1377;-95
2022/01/01 07:52:22;;;;;;;;;;;;;;;5.20;62.52;100807.13;6274873;22;1285;-95
2022/01/01 07:54:48;;;;;;;;;;;;;;;5.24;62.30;100815.63;6248412;23;1256;-96
2022/01/01 07:57:15;;;;;;;;;;;;;;;5.22;62.40;100823.81;6249721;23;1340;-96
2022/01/01 07:59:41;;;;;;;;;;;;;;;5.22;62.36;100829.16;6275497;22;1305;-95
2022/01/01 08:02:08;;;;;;;;;;;;;;;5.21;62.45;100827.50;6249180;23;1362;-95
2022/01/01 08:04:34;;;;;;;;;;;;;;;5.21;62.65;100838.19;6225073;23;1920;-94
2022/01/01 08:07:01;;;;;;;;;;;;;;;5.24;62.65;100834.34;6275789;22;1215;-94
2022/01/01 08:09:28;;;;;;;;;;;;;;;5.25;62.53;100836.00;6250912;23;1312;-95
2022/01/01 08:11:55;;;;;;;;;;;;;;;5.24;62.55;100840.50;6277672;22;1341;-95
2022/01/01 08:14:21;;;;;;;;;;;;;;;5.21;62.47;100850.72;6275201;22;1336;-93
2022/01/01 08:16:48;;;;;;;;;;;;;;;5.21;62.63;100856.06;6246213;23;1330;-94
2022/01/01 08:19:14;;;;;;;;;;;;;;;5.21;62.53;100859.56;6247084;23;1356;-94
2022/01/01 08:21:41;;;;;;;;;;;;;;;5.20;62.66;100878.41;6246655;23;1393;-95
2022/01/01 08:24:07;;;;;;;;;;;;;;;5.23;62.51;100873.56;6247468;23;1870;-96
2022/01/01 08:26:34;;;;;;;;;;;;;;;5.27;62.48;100886.56;6197782;23;1194;-95
2022/01/01 08:29:00;;;;;;;;;;;;;;;5.27;62.34;100883.91;6197529;23;1357;-96
2022/01/01 08:31:27;;;;;;;;;;;;;;;5.29;62.21;100901.38;6248439;23;1268;-94
2022/01/01 08:33:53;;;;;;;;;;;;;;;5.31;62.40;100901.22;6197558;23;1190;-95
2022/01/01 08:36:21;;;;;;;;;;;;;;;5.29;62.25;100893.38;6247353;23;1257;-94
2022/01/01 08:38:48;;;;;;;;;;;;;;;5.28;62.53;100917.59;6220463;23;1277;-94
2022/01/01 08:41:15;;;;;;;;;;;;;;;5.30;62.34;100920.94;6199581;23;1245;-95
2022/01/01 08:43:41;;;;;;;;;;;;;;;5.28;62.32;100934.44;6247900;23;1941;-94
2022/01/01 08:46:08;;;;;;;;;;;;;;;5.29;62.47;100946.78;6201793;23;1430;-96
2022/01/01 08:48:40;;;;;;;;;;;;;;;5.29;62.24;100945.97;6253086;23;1248;-94
2022/01/01 08:51:07;;;;;;;;;;;;;;;5.30;62.33;100958.31;6247622;22;1528;-94
2022/01/01 08:53:33;;;;;;;;;;;;;;;5.31;62.27;100954.63;6200995;23;1197;-96
2022/01/01 08:56:02;;;;;;;;;;;;;;;5.27;62.25;100962.19;6253487;23;1362;-94
2022/01/01 08:58:28;;;;;;;;;;;;;;;5.35;62.30;100958.59;6205942;23;1260;-95
2022/01/01 09:00:55;;;;;;;;;;;;;;;5.30;62.33;100956.47;6200501;23;1380;-94
2022/01/01 09:03:22;;;;;;;;;;;;;;;5.32;62.19;100966.97;6201456;23;1873;-96
2022/01/01 09:05:49;;;;;;;;;;;;;;;5.27;62.45;100970.19;6249004;23;1456;-95
2022/01/01 09:08:16;;;;;;;;;;;;;;;5.32;62.31;100975.00;6224267;23;1314;-94
2022/01/01 09:10:43;;;;;;;;;;;;;;;5.34;62.17;100981.00;6249858;23;1387;-94
2022/01/01 09:13:10;;;;;;;;;;;;;;;5.28;62.34;100981.69;6249676;23;1174;-94
2022/01/01 09:15:37;;;;;;;;;;;;;;;5.29;62.33;100986.03;6200063;23;1472;-94
2022/01/01 09:18:03;;;;;;;;;;;;;;;5.28;62.46;100987.03;6227698;23;1269;-95
2022/01/01 09:20:30;;;;;;;;;;;;;;;5.29;61.99;100984.19;6252868;23;1560;-95
2022/01/01 09:22:57;;;;;;;;;;;;;;;5.29;62.26;100978.84;6248742;23;1349;-95
2022/01/01 09:25:23;;;;;;;;;;;;;;;5.31;62.29;100982.16;6201252;23;1917;-94
2022/01/01 09:27:50;;;;;;;;;;;;;;;5.32;62.12;100981.16;6195857;23;1375;-94
2022/01/01 09:30:16;;;;;;;;;;;;;;;5.37;62.20;100983.31;6246555;23;1172;-95
2022/01/01 09:32:43;;;;;;;;;;;;;;;5.34;62.12;100987.16;6247452;23;1444;-93
2022/01/01 09:35:14;;;;;;;;;;;;;;;5.32;62.21;100994.50;6249214;23;1150;-94
2022/01/01 09:37:42;;;;;;;;;;;;;;;5.32;62.26;100997.19;6246738;23;1407;-94
2022/01/01 09:40:09;;;;;;;;;;;;;;;5.33;62.38;100998.03;6221201;23;1367;-94
2022/01/01 09:42:35;;;;;;;;;;;;;;;5.35;62.30;101001.34;6247363;23;1262;-94
2022/01/01 09:45:02;;;;;;;;;;;;;;;5.34;62.38;100997.03;6246727;23;1958;-95
2022/01/01 09:47:28;;;;;;;;;;;;;;;5.33;62.28;101006.06;6195452;23;1226;-96
2022/01/01 09:49:55;;;;;;;;;;;;;;;5.33;62.37;101009.53;6254957;23;1339;-94
2022/01/01 09:52:22;;;;;;;;;;;;;;;5.35;62.25;101020.03;6246889;23;1318;-94
2022/01/01 09:54:49;;;;;;;;;;;;;;;5.33;62.48;101028.25;6245317;23;1320;-93
2022/01/01 09:57:15;;;;;;;;;;;;;;;5.35;62.17;101031.56;6224202;23;1329;-94
2022/01/01 09:59:45;;;;;;;;;;;;;;;5.36;62.21;101032.41;6206242;23;1194;-94
2022/01/01 10:02:12;;;;;;;;;;;;;;;5.42;62.17;101029.03;6197193;23;1254;-95
2022/01/01 10:04:40;;;;;;;;;;;;;;;5.39;62.29;101029.38;6220063;23;1897;-95
2022/01/01 10:07:06;;;;;;;;;;;;;;;5.37;62.32;101018.03;6246438;23;1251;-96
2022/01/01 10:09:33;;;;;;;;;;;;;;;5.37;62.29;101023.38;6245385;23;1368;-95
2022/01/01 10:11:59;;;;;;;;;;;;;;;5.35;62.45;101020.03;6243329;23;1494;-95
2022/01/01 10:14:26;;;;;;;;;;;;;;;5.37;62.35;101018.88;6218494;22;1282;-92
2022/01/01 10:16:52;;;;;;;;;;;;;;;5.36;62.28;101035.09;6193918;23;1210;-94
2022/01/01 10:19:20;;;;;;;;;;;;;;;5.35;62.29;101036.91;6250586;23;1244;-94
2022/01/01 10:21:50;;;;;;;;;;;;;;;5.39;62.19;101030.22;6196301;23;1349;-93
2022/01/01 10:24:29;;;;;;;;;;;;;;;5.40;62.05;101039.06;6247096;23;1905;-96
2022/01/01 10:29:40;;;;;;;;;;;;;;;5.39;62.36;101051.59;6202368;23;1270;-96
2022/01/01 10:32:08;;;;;;;;;;;;;;;5.44;62.23;101059.06;6251333;23;1382;-96
2022/01/01 10:34:34;;;;;;;;;;;;;;;5.41;62.33;101062.94;6203731;23;1233;-95
2022/01/01 10:37:01;;;;;;;;;;;;;;;5.38;62.22;101063.28;6228570;23;1159;-94
2022/01/01 10:39:28;;;;;;;;;;;;;;;5.36;62.37;101048.44;6202278;23;1370;-94
2022/01/01 10:41:55;;;;;;;;;;;;;;;5.39;62.02;101045.41;6193888;23;1289;-95
2022/01/01 10:44:22;;;;;;;;;;;;;;;5.40;62.05;101041.72;6200317;23;1900;-94
2022/01/01 10:46:49;;;;;;;;;;;;;;;5.40;62.30;101036.38;6247133;23;1298;-95
2022/01/01 10:57:40;;;;;;;;;;;;;;;5.34;62.32;101026.41;6330538;22;1840;-95
2022/01/01 11:00:08;;;;;;;;;;;;;;;5.44;62.23;101037.69;6338409;22;1154;-96
2022/01/01 11:02:41;;;;;;;;;;;;;;;5.43;61.96;101044.06;6325767;22;3843;-96
2022/01/01 11:05:09;;;;;;;;;;;;;;;5.46;62.28;101043.72;6258110;22;1940;-94
2022/01/01 11:07:35;;;;;;;;;;;;;;;5.50;61.96;101036.16;6233747;23;1234;-95
2022/01/01 11:10:02;;;;;;;;;;;;;;;5.49;62.25;101037.19;6233371;23;1360;-94
2022/01/01 11:12:28;;;;;;;;;;;;;;;5.46;62.24;101039.19;6235613;23;1394;-93
2022/01/01 11:14:55;;;;;;;;;;;;;;;5.45;62.62;101026.03;6224277;23;1381;-93
2022/01/01 11:17:22;;;;;;;;;;;;;;;5.45;62.32;101031.38;6228689;23;1239;-94
2022/01/01 11:30:40;;;;;;;;;;;;;;;5.40;62.40;101018.53;6289270;22;1831;-94
2022/01/01 11:33:07;;;;;;;;;;;;;;;5.43;62.48;101007.47;6265855;22;1278;-96
2022/01/01 11:35:34;;;;;;;;;;;;;;;5.49;62.25;101003.28;6269956;22;1259;-94
2022/01/01 11:38:02;;;;;;;;;;;;;;;5.45;62.47;101000.13;6273514;22;1211;-95
2022/01/01 11:40:29;;;;;;;;;;;;;;;5.50;62.29;101001.44;6271833;22;1408;-96
2022/01/01 11:45:56;;;;;;;;;;;;;;;5.46;62.46;100988.44;6299326;22;1888;-95
2022/01/01 11:51:56;;;;;;;;;;;;;;;5.50;62.42;101004.09;6295841;22;965;-95
2022/01/01 11:54:32;;;;;;;;;;;;;;;5.53;62.29;101006.44;6302694;22;959;-96
2022/01/01 11:59:54;;;;;;;;;;;;;;;5.47;62.53;100995.47;6310097;22;1354;-96
2022/01/01 12:02:21;;;;;;;;;;;;;;;5.55;62.24;100999.06;6289232;22;1306;-96
2022/01/01 12:07:57;;;;;;;;;;;;;;;5.51;62.44;101003.13;6327067;22;1268;-96
2022/01/01 12:13:38;;;;;;;;;;;;;;;5.57;62.14;101002.41;6329086;22;737;-96
2022/01/01 12:16:06;;;;;;;;;;;;;;;5.59;62.26;101005.72;6305130;22;1293;-96
2022/01/01 12:18:33;;;;;;;;;;;;;;;5.55;62.08;101004.41;6305871;22;1190;-96
2022/01/01 12:21:02;;;;;;;;;;;;;;;5.53;62.46;100996.59;6302325;22;1387;-96
2022/01/01 12:23:30;;;;;;;;;;;;;;;5.59;62.21;100985.19;6298509;22;1360;-96
2022/01/01 12:25:58;;;;;;;;;;;;;;;5.59;62.24;100971.84;6298094;22;1896;-96
2022/01/01 12:28:27;;;;;;;;;;;;;;;5.59;62.26;100982.53;6297100;22;1346;-96
2022/01/01 12:33:59;;;;;;;;;;;;;;;5.57;62.32;100971.19;6329069;22;1431;-96
2022/01/01 12:40:04;;;;;;;;;;;;;;;5.59;62.48;100973.66;6294169;22;3725;-95
2022/01/01 12:43:00;;;;;;;;;;;;;;;5.58;62.52;100983.50;6294230;22;656;-95
2022/01/01 13:32:40;;;;;;;;;;;;;;;5.56;62.56;100904.53;6272550;22;1500;-95
2022/01/01 13:35:07;;;;;;;;;;;;;;;5.54;62.56;100894.03;6235308;23;1273;-93
2022/01/01 13:37:36;;;;;;;;;;;;;;;5.54;62.45;100887.88;6236777;23;1164;-95
2022/01/01 14:19:24;;;;;;;;;;;;;;;5.52;62.79;100881.88;6282345;22;2129;-94
2022/01/01 14:22:16;;;;;;;;;;;;;;;5.46;62.93;100868.22;6297867;22;789;-96
2022/01/01 14:25:08;;;;;;;;;;;;;;;5.45;63.08;100865.72;6291290;22;1911;-94
2022/01/01 14:27:36;;;;;;;;;;;;;;;5.45;63.00;100882.59;6262723;22;1314;-94
2022/01/01 14:30:02;;;;;;;;;;;;;;;5.45;62.94;100884.44;6261976;22;1202;-95
2022/01/01 14:32:29;;;;;;;;;;;;;;;5.45;63.25;100882.59;6261239;22;1391;-93
2022/01/01 14:34:59;;;;;;;;;;;;;;;5.49;62.85;100875.03;6273605;22;1288;-95
2022/01/01 14:37:26;;;;;;;;;;;;;;;5.49;62.96;100875.03;6268221;22;1400;-94
2022/01/01 14:42:34;;;;;;;;;;;;;;;5.52;62.83;100877.34;6267734;22;1188;-94
2022/01/01 14:50:37;;;;;;;;;;;;;;;5.46;62.75;100873.56;6257457;22;1450;-94
2022/01/01 14:53:04;;;;;;;;;;;;;;;5.47;63.06;100872.56;6260257;22;1042;-95
2022/01/01 14:55:31;;;;;;;;;;;;;;;5.46;63.02;100859.38;6262185;22;1286;-96
2022/01/01 14:58:04;;;;;;;;;;;;;;;5.45;62.81;100863.88;6263824;22;1251;-96
2022/01/01 15:03:17;;;;;;;;;;;;;;;5.46;62.81;100856.69;6287689;22;1478;-96
2022/01/01 15:05:43;;;;;;;;;;;;;;;5.44;63.02;100850.69;6260606;22;1943;-96
2022/01/01 15:11:05;;;;;;;;;;;;;;;5.46;62.99;100852.19;6259184;22;1238;-95
2022/01/01 15:13:33;;;;;;;;;;;;;;;5.47;62.81;100853.84;6287796;22;1222;-96
2022/01/01 15:16:00;;;;;;;;;;;;;;;5.43;62.86;100847.19;6263130;22;1297;-94
2022/01/01 15:18:26;;;;;;;;;;;;;;;5.44;63.11;100846.22;6261885;22;1479;-96
2022/01/01 15:20:53;;;;;;;;;;;;;;;5.42;63.06;100850.88;6256850;22;1312;-94
2022/01/01 15:23:19;;;;;;;;;;;;;;;5.43;62.85;100860.56;6255348;22;1267;-94
2022/01/01 15:25:46;;;;;;;;;;;;;;;5.41;63.02;100859.91;6254321;22;1951;-94